createdAt,value
2022-08-22T09:41:36.381Z,23.26
2022-08-22T09:44:48.725Z,23.48
2022-08-22T09:48:07.354Z,23.49
2022-08-22T09:55:51.167Z,23.28
2022-08-22T09:59:00.044Z,22.86
2022-08-22T10:02:16.938Z,22.77
2022-08-22T10:05:40.961Z,22.42
2022-08-22T10:08:55.997Z,22.44
2022-08-22T10:12:19.584Z,22.17
2022-08-22T10:15:43.276Z,22.25
2022-08-22T10:19:00.537Z,22.53
2022-08-22T10:22:23.509Z,22.94
2022-08-22T10:25:30.187Z,22.82
2022-08-22T10:28:42.098Z,22.99
2022-08-22T10:32:03.746Z,23.10
2022-08-22T10:35:28.493Z,23.21
2022-08-22T10:38:46.367Z,23.39
2022-08-22T10:42:08.295Z,23.51
2022-08-22T10:45:35.869Z,23.63
2022-08-22T10:48:45.458Z,24.14
2022-08-22T10:52:16.295Z,24.57
2022-08-22T10:55:27.005Z,24.65
2022-08-22T10:58:35.678Z,24.93
2022-08-22T11:01:52.264Z,25.32
2022-08-22T11:05:09.622Z,25.53
2022-08-22T11:08:18.586Z,25.24
2022-08-22T11:11:21.143Z,25.13
2022-08-22T11:14:43.505Z,25.08
2022-08-22T11:18:06.318Z,24.83
2022-08-22T11:21:40.324Z,25.15
2022-08-22T11:24:46.633Z,24.94
2022-08-22T11:28:22.685Z,25.28
2022-08-22T11:31:31.652Z,24.91
2022-08-22T11:35:10.971Z,24.85
2022-08-22T11:38:16.057Z,25.22
2022-08-22T11:41:34.596Z,25.87
2022-08-22T11:44:50.931Z,26.02
2022-08-22T11:48:00.338Z,25.86
2022-08-22T11:51:26.187Z,26.05
2022-08-22T11:54:37.811Z,26.21
2022-08-22T11:58:11.526Z,26.49
2022-08-22T12:01:46.633Z,26.41
2022-08-22T12:04:53.430Z,26.44
2022-08-22T12:08:02.268Z,26.49
2022-08-22T12:11:11.971Z,26.51
2022-08-22T12:14:27.024Z,26.44
2022-08-22T12:17:55.484Z,26.53
2022-08-22T12:21:21.538Z,26.28
2022-08-22T12:24:33.952Z,26.12
2022-08-22T12:27:35.943Z,25.82
2022-08-22T12:30:47.316Z,25.85
2022-08-22T12:33:56.900Z,25.96
2022-08-22T12:37:07.205Z,25.77
2022-08-22T12:40:19.952Z,25.70
2022-08-22T12:43:39.921Z,25.17
2022-08-22T12:47:00.148Z,25.01
2022-08-22T12:50:26.791Z,24.90
2022-08-22T12:53:55.483Z,24.80
2022-08-22T12:57:23.667Z,24.55
2022-08-22T13:00:44.692Z,24.43
2022-08-22T13:03:52.553Z,24.06
2022-08-22T13:07:01.028Z,23.98
2022-08-22T13:10:17.367Z,23.90
2022-08-22T13:13:31.655Z,23.93
2022-08-22T13:16:48.828Z,24.13
2022-08-22T13:19:56.305Z,24.40
2022-08-22T13:23:03.127Z,24.60
2022-08-22T13:26:32.860Z,24.73
2022-08-22T13:29:51.081Z,25.09
2022-08-22T13:32:54.576Z,25.18
2022-08-22T13:36:06.208Z,25.26
2022-08-22T13:39:19.709Z,25.38
2022-08-22T13:42:30.228Z,25.04
2022-08-22T13:45:35.748Z,25.10
2022-08-22T13:48:56.691Z,24.98
2022-08-22T13:52:29.111Z,24.85
2022-08-22T13:55:43.145Z,24.85
2022-08-22T13:58:50.625Z,24.58
2022-08-22T14:02:02.382Z,24.28
2022-08-22T14:05:12.566Z,24.22
2022-08-22T14:08:22.308Z,24.29
2022-08-22T14:11:41.036Z,24.28
2022-08-22T14:14:46.351Z,24.27
2022-08-22T14:17:54.646Z,24.14
2022-08-22T14:21:19.218Z,23.90
2022-08-22T14:24:28.954Z,23.76
2022-08-22T14:27:41.538Z,23.69
2022-08-22T14:31:00.661Z,23.56
2022-08-22T14:34:12.745Z,23.58
2022-08-22T14:37:17.986Z,23.40
2022-08-22T14:40:28.082Z,23.30
2022-08-22T14:43:30.931Z,22.98
2022-08-22T14:46:39.024Z,22.40
2022-08-22T14:49:59.138Z,21.86
2022-08-22T14:53:07.677Z,21.58
2022-08-22T14:56:19.675Z,21.34
2022-08-22T14:59:40.655Z,21.29
2022-08-22T15:02:43.121Z,21.39
2022-08-22T15:05:48.740Z,21.62
2022-08-22T15:09:13.511Z,21.79
2022-08-22T15:12:25.407Z,21.85
2022-08-22T15:15:49.467Z,21.96
2022-08-22T15:19:00.714Z,21.95
2022-08-22T15:22:34.217Z,21.89
2022-08-22T15:25:41.016Z,21.83
2022-08-22T15:29:07.691Z,21.97
2022-08-22T15:32:10.292Z,22.08
2022-08-22T15:35:29.950Z,22.12
2022-08-22T15:38:37.184Z,22.14
2022-08-22T15:41:44.779Z,22.33
2022-08-22T15:44:47.579Z,22.22
2022-08-22T15:47:52.837Z,22.13
2022-08-22T15:50:56.390Z,22.05
2022-08-22T15:54:03.845Z,21.97
2022-08-22T15:57:30.992Z,21.92
2022-08-22T16:00:45.426Z,21.83
2022-08-22T16:04:00.594Z,21.73
2022-08-22T16:07:21.865Z,21.65
2022-08-22T16:10:24.496Z,21.45
2022-08-22T16:13:28.322Z,21.45
2022-08-22T16:16:49.627Z,21.60
2022-08-22T16:20:15.798Z,21.63
2022-08-22T16:23:23.441Z,21.59
2022-08-22T16:26:32.271Z,21.72
2022-08-22T16:29:41.651Z,21.77
2022-08-22T16:32:52.305Z,21.58
2022-08-22T16:36:14.035Z,21.54
2022-08-22T16:39:23.785Z,21.43
2022-08-22T16:42:37.204Z,21.41
2022-08-22T16:45:41.915Z,21.37
2022-08-22T16:48:45.664Z,21.45
2022-08-22T16:52:08.576Z,21.36
2022-08-22T16:55:29.646Z,21.24
2022-08-22T16:59:03.367Z,21.26
2022-08-22T17:02:22.934Z,21.14
2022-08-22T17:05:34.813Z,20.97
2022-08-22T17:08:43.782Z,21.04
2022-08-22T17:11:58.774Z,21.02
2022-08-22T17:15:25.302Z,20.91
2022-08-22T17:18:31.161Z,20.80
2022-08-22T17:21:39.150Z,20.97
2022-08-22T17:24:41.990Z,20.99
2022-08-22T17:27:48.200Z,20.83
2022-08-22T17:30:50.932Z,20.72
2022-08-22T17:34:03.969Z,20.51
2022-08-22T17:37:07.740Z,20.09
2022-08-22T17:40:23.630Z,19.85
2022-08-22T17:43:48.537Z,19.83
2022-08-22T17:46:54.804Z,19.79
2022-08-22T17:50:01.787Z,19.73
2022-08-22T17:53:25.689Z,19.69
2022-08-22T17:56:32.577Z,19.65
2022-08-22T17:59:45.744Z,19.62
2022-08-22T18:02:54.490Z,19.61
2022-08-22T18:06:19.880Z,19.55
2022-08-22T18:09:29.379Z,19.58
2022-08-22T18:12:35.009Z,19.56
2022-08-22T18:15:56.125Z,19.57
2022-08-22T18:19:00.843Z,19.66
2022-08-22T18:22:21.973Z,19.66
2022-08-22T18:25:36.623Z,19.69
2022-08-22T18:28:49.019Z,19.68
2022-08-22T18:32:07.934Z,19.73
2022-08-22T18:35:19.416Z,19.70
2022-08-22T18:38:24.558Z,19.66
2022-08-22T18:41:31.503Z,19.56
2022-08-22T18:44:35.304Z,19.52
2022-08-22T18:47:40.168Z,19.57
2022-08-22T18:50:46.567Z,19.58
2022-08-22T18:54:19.542Z,19.44
2022-08-22T18:57:42.810Z,19.36
2022-08-22T19:01:07.570Z,19.34
2022-08-22T19:04:23.812Z,19.42
2022-08-22T19:08:01.954Z,19.39
2022-08-22T19:11:14.691Z,19.39
2022-08-22T19:14:30.102Z,19.34
2022-08-22T19:17:35.136Z,19.38
2022-08-22T19:20:58.062Z,19.47
2022-08-22T19:24:04.063Z,19.33
2022-08-22T19:27:18.612Z,19.32
2022-08-22T19:30:41.879Z,19.38
2022-08-22T19:33:50.886Z,19.41
2022-08-22T19:37:32.015Z,19.48
2022-08-22T19:40:49.778Z,19.51
2022-08-22T19:43:52.668Z,19.41
2022-08-22T19:47:16.806Z,19.48
2022-08-22T19:50:19.322Z,19.40
2022-08-22T19:53:42.493Z,19.22
2022-08-22T19:57:05.466Z,19.19
2022-08-22T20:00:11.865Z,19.15
2022-08-22T20:03:18.823Z,19.01
2022-08-22T20:06:43.071Z,18.96
2022-08-22T20:09:47.964Z,19.01
2022-08-22T20:13:04.229Z,18.91
2022-08-22T20:16:10.936Z,18.83
2022-08-22T20:19:19.936Z,18.80
2022-08-22T20:22:28.691Z,18.71
2022-08-22T20:25:42.357Z,18.64
2022-08-22T20:28:49.913Z,18.54
2022-08-22T20:31:56.766Z,18.51
2022-08-22T20:35:03.493Z,18.55
2022-08-22T20:38:08.354Z,18.51
2022-08-22T20:41:11.699Z,18.48
2022-08-22T20:44:21.677Z,18.51
2022-08-22T20:47:26.087Z,18.55
2022-08-22T20:50:38.735Z,18.62
2022-08-22T20:53:42.833Z,18.63
2022-08-22T20:56:53.437Z,18.63
2022-08-22T21:00:09.498Z,18.64
2022-08-22T21:03:16.344Z,18.70
2022-08-22T21:06:34.740Z,18.78
2022-08-22T21:09:56.476Z,18.68
2022-08-22T21:13:09.875Z,18.65
2022-08-22T21:16:14.453Z,18.66
2022-08-22T21:19:24.546Z,18.65
2022-08-22T21:22:31.362Z,18.63
2022-08-22T21:25:48.718Z,18.72
2022-08-22T21:28:57.132Z,18.72
2022-08-22T21:32:11.722Z,18.73
2022-08-22T21:35:40.609Z,18.69
2022-08-22T21:38:49.919Z,18.76
2022-08-22T21:41:54.506Z,18.80
2022-08-22T21:45:03.376Z,18.74
2022-08-22T21:48:24.739Z,18.75
2022-08-22T21:51:30.347Z,18.77
2022-08-22T21:54:40.447Z,18.84
2022-08-22T21:57:43.152Z,18.83
2022-08-22T22:00:55.557Z,18.69
2022-08-22T22:04:01.973Z,18.74
2022-08-22T22:07:07.162Z,18.75
2022-08-22T22:10:14.839Z,18.86
2022-08-22T22:13:20.064Z,18.92
2022-08-22T22:16:29.227Z,18.90
2022-08-22T22:19:33.520Z,18.91
2022-08-22T22:22:46.367Z,18.89
2022-08-22T22:25:50.595Z,19.01
2022-08-22T22:28:54.420Z,18.99
2022-08-22T22:31:56.855Z,19.00
2022-08-22T22:35:01.003Z,18.98
2022-08-22T22:38:03.371Z,18.99
2022-08-22T22:41:06.100Z,19.00
2022-08-22T22:44:10.394Z,19.02
2022-08-22T22:47:13.839Z,19.07
2022-08-22T22:50:16.724Z,19.07
2022-08-22T22:53:21.288Z,19.02
2022-08-22T22:56:36.311Z,19.00
2022-08-22T22:59:40.433Z,19.09
2022-08-22T23:02:44.700Z,19.08
2022-08-22T23:05:47.963Z,19.08
2022-08-22T23:08:52.283Z,19.09
2022-08-22T23:11:55.043Z,19.11
2022-08-22T23:15:01.234Z,19.10
2022-08-22T23:18:05.377Z,19.10
2022-08-22T23:21:13.715Z,19.09
2022-08-22T23:24:17.879Z,19.18
2022-08-22T23:27:21.112Z,19.14
2022-08-22T23:30:28.923Z,19.07
2022-08-22T23:33:36.406Z,18.98
2022-08-22T23:36:39.736Z,18.99
2022-08-22T23:39:42.983Z,19.00
2022-08-22T23:42:45.577Z,18.99
2022-08-22T23:45:50.603Z,18.82
2022-08-22T23:48:53.692Z,18.86
2022-08-22T23:51:59.902Z,18.98
2022-08-22T23:55:02.768Z,18.98
2022-08-22T23:58:06.691Z,18.80
